Time;durP1;ratioP1;P1;durP2;ratioP2;P2;SDS_P1;SDS_P2;PMS_P1;PMS_P2;Temp;Humidity;BMP_temperature;BMP_pressure;BME280_temperature;BME280_humidity;BME280_pressure;Samples;Min_cycle;Max_cycle;Signal;HPM_P1;HPM_P2
2023/09/25 00:01:05;;;;;;;3.35;0.80;;;;;;;18.92;52.08;97261.78;10278137;28;20045;-27
2023/09/25 00:06:05;;;;;;;1.65;0.90;;;;;;;18.94;52.02;97260.09;10282035;28;20031;-27
2023/09/25 00:11:06;;;;;;;1.35;0.90;;;;;;;18.88;51.94;97252.44;10283107;28;20401;-27
2023/09/25 00:16:14;;;;;;;2.00;0.90;;;;;;;18.88;52.10;97244.81;10284121;28;20035;-27
2023/09/25 00:21:14;;;;;;;3.00;0.60;;;;;;;18.91;52.07;97255.84;10282517;28;20279;-27
2023/09/25 00:26:16;;;;;;;1.30;0.90;;;;;;;18.90;52.04;97256.69;10284297;28;20030;-28
2023/09/25 00:31:22;;;;;;;1.10;0.90;;;;;;;18.93;52.06;97258.41;10282903;28;20293;-26
2023/09/25 00:36:22;;;;;;;1.15;0.88;;;;;;;18.87;52.03;97253.28;10280418;28;20533;-26
2023/09/25 00:41:23;;;;;;;1.05;0.80;;;;;;;18.88;52.11;97254.97;10286645;28;20031;-27
2023/09/25 00:46:24;;;;;;;1.73;0.93;;;;;;;18.89;52.17;97254.13;10282333;28;20023;-27
2023/09/25 00:51:25;;;;;;;0.63;0.57;;;;;;;18.89;52.12;97256.66;10283858;28;20060;-26
2023/09/25 00:56:25;;;;;;;1.30;0.90;;;;;;;18.89;51.86;97252.47;10285071;28;20415;-27
2023/09/25 01:01:27;;;;;;;1.35;0.90;;;;;;;18.91;51.67;97252.47;10288707;28;20034;-26
2023/09/25 01:06:28;;;;;;;1.55;0.98;;;;;;;18.89;51.78;97251.59;10286848;28;20409;-26
2023/09/25 01:11:28;;;;;;;0.88;0.60;;;;;;;18.88;52.07;97247.34;10291800;28;20070;-27
2023/09/25 01:16:29;;;;;;;0.57;0.50;;;;;;;18.87;51.95;97232.97;10293095;28;20465;-27
2023/09/25 01:21:31;;;;;;;2.35;1.10;;;;;;;18.85;51.86;97237.19;10303014;28;20333;-27
2023/09/25 01:26:31;;;;;;;1.25;0.88;;;;;;;18.88;51.87;97239.75;10289722;28;20527;-26
2023/09/25 01:31:32;;;;;;;1.33;0.90;;;;;;;18.83;51.86;97231.28;10289388;28;20039;-27
2023/09/25 01:36:32;;;;;;;1.40;0.77;;;;;;;18.86;51.45;97226.22;10286742;28;20296;-27
2023/09/25 01:41:33;;;;;;;0.85;0.73;;;;;;;18.87;51.65;97220.28;10289878;28;20294;-27
2023/09/25 01:46:33;;;;;;;1.07;0.80;;;;;;;18.87;51.87;97222.84;10285783;28;20039;-27
2023/09/25 01:51:34;;;;;;;2.38;0.90;;;;;;;18.81;51.85;97205.03;10287202;28;20304;-27
2023/09/25 01:56:34;;;;;;;1.50;1.20;;;;;;;18.85;51.73;97209.28;10291564;28;20034;-27
2023/09/25 02:01:36;;;;;;;1.47;1.03;;;;;;;18.84;51.56;97202.53;10292079;28;20308;-27
2023/09/25 02:06:36;;;;;;;3.15;0.90;;;;;;;18.84;51.49;97192.38;10288782;28;20297;-27
2023/09/25 02:11:37;;;;;;;1.63;0.93;;;;;;;18.80;51.48;97183.91;10292357;28;20117;-27
2023/09/25 02:16:41;;;;;;;1.08;0.73;;;;;;;18.83;51.58;97185.63;10281720;28;20031;-26
2023/09/25 02:21:41;;;;;;;2.28;1.10;;;;;;;18.83;51.53;97183.06;10288544;28;20038;-27
2023/09/25 02:26:41;;;;;;;1.37;0.77;;;;;;;18.84;51.51;97184.78;10286132;28;20421;-27
2023/09/25 02:31:42;;;;;;;1.20;0.87;;;;;;;18.84;51.43;97184.78;10283526;28;20297;-27
2023/09/25 02:36:43;;;;;;;1.20;0.70;;;;;;;18.83;51.21;97175.47;10287647;28;20294;-27
2023/09/25 02:41:43;;;;;;;2.50;0.90;;;;;;;18.82;51.19;97172.06;10289680;28;20857;-27
2023/09/25 02:46:44;;;;;;;0.80;0.70;;;;;;;18.83;51.40;97175.47;10281622;28;20506;-27
2023/09/25 02:51:44;;;;;;;1.17;0.77;;;;;;;18.82;51.26;97166.16;10288926;28;20035;-27
2023/09/25 02:56:46;;;;;;;1.57;0.80;;;;;;;18.82;51.29;97173.78;10289116;28;20038;-27
2023/09/25 03:01:47;;;;;;;2.08;0.85;;;;;;;18.81;51.25;97164.44;10295719;28;20792;-27
2023/09/25 03:06:47;;;;;;;2.37;1.10;;;;;;;18.80;51.45;97160.22;10284301;28;20096;-27
2023/09/25 03:12:01;;;;;;;3.07;0.87;;;;;;;18.81;51.41;97177.13;10278004;28;20871;-27
2023/09/25 03:17:01;;;;;;;1.88;0.80;;;;;;;18.83;51.17;97170.41;10282330;28;20653;-27
2023/09/25 03:22:02;;;;;;;1.27;0.90;;;;;;;18.82;51.04;97167.00;10287929;28;20034;-27
2023/09/25 03:27:02;;;;;;;0.80;0.63;;;;;;;18.81;51.22;97164.44;10281860;28;20073;-27
2023/09/25 03:32:03;;;;;;;0.93;0.60;;;;;;;18.80;51.23;97172.91;10285408;28;20049;-27
2023/09/25 03:37:04;;;;;;;5.32;1.55;;;;;;;18.81;51.12;97162.75;10264523;28;20090;-26
2023/09/25 03:42:05;;;;;;;0.77;0.73;;;;;;;18.79;50.99;97164.44;10280296;28;20037;-27
2023/09/25 03:47:06;;;;;;;1.20;0.95;;;;;;;18.81;51.01;97169.50;10285902;28;20049;-26
2023/09/25 03:52:06;;;;;;;1.23;0.98;;;;;;;18.81;50.96;97177.97;10283318;28;20469;-27
2023/09/25 03:57:07;;;;;;;1.43;1.00;;;;;;;18.81;51.08;97179.66;10283940;28;20022;-27
2023/09/25 04:02:07;;;;;;;1.27;0.90;;;;;;;18.80;51.09;97180.50;10284046;28;20031;-27
2023/09/25 04:07:08;;;;;;;1.27;0.80;;;;;;;18.76;51.06;97177.09;10284504;28;20026;-27
2023/09/25 04:12:08;;;;;;;1.67;1.10;;;;;;;18.81;51.10;97189.81;10248555;28;20501;-27
2023/09/25 04:17:10;;;;;;;2.57;1.67;;;;;;;18.59;53.58;97188.00;10224611;28;20050;-27
2023/09/25 04:22:11;;;;;;;1.70;1.08;;;;;;;18.39;53.26;97174.31;10235709;28;20321;-27
2023/09/25 04:27:12;;;;;;;2.00;1.00;;;;;;;18.47;52.65;97185.34;10294405;28;20467;-26
2023/09/25 04:32:14;;;;;;;1.35;0.90;;;;;;;18.48;52.66;97192.09;10284927;28;20085;-27
2023/09/25 04:37:16;;;;;;;1.38;1.02;;;;;;;18.44;52.27;97187.88;10293382;28;20041;-26
2023/09/25 04:42:17;;;;;;;1.08;0.75;;;;;;;18.48;51.70;97192.09;10295211;28;20563;-27
2023/09/25 04:47:18;;;;;;;1.60;1.00;;;;;;;18.46;51.40;97203.94;10284626;28;20070;-28
2023/09/25 04:52:19;;;;;;;1.50;1.00;;;;;;;18.40;51.21;97203.91;10292310;28;20129;-26
2023/09/25 04:57:19;;;;;;;5.05;1.05;;;;;;;18.23;50.79;97201.19;10296428;28;20713;-27
2023/09/25 05:02:20;;;;;;;3.88;1.30;;;;;;;18.36;49.93;97207.25;10289282;28;20026;-27
2023/09/25 05:07:20;;;;;;;7.40;1.40;;;;;;;18.56;51.10;97220.91;10291318;28;20094;-26
2023/09/25 05:12:20;;;;;;;7.57;1.33;;;;;;;18.70;50.85;97221.88;10292024;28;20696;-26
2023/09/25 05:17:21;;;;;;;3.60;1.38;;;;;;;18.84;50.51;97220.28;10288800;28;20045;-27
2023/09/25 05:22:21;;;;;;;1.45;0.70;;;;;;;18.88;50.71;97230.47;10290192;28;20382;-26
2023/09/25 05:27:22;;;;;;;4.40;1.10;;;;;;;18.88;50.81;97225.38;10285946;28;20031;-27
2023/09/25 05:32:23;;;;;;;12.68;1.15;;;;;;;18.63;49.80;97228.59;10286680;28;20505;-27
2023/09/25 05:37:23;;;;;;;6.70;1.30;;;;;;;18.67;50.12;97229.47;10291588;28;20034;-26
2023/09/25 05:42:24;;;;;;;33.50;2.10;;;;;;;18.79;50.42;97230.41;10288740;28;20553;-27
2023/09/25 05:47:24;;;;;;;4.25;1.50;;;;;;;18.87;50.78;97227.91;10288533;28;20518;-27
2023/09/25 05:52:25;;;;;;;1.70;1.03;;;;;;;18.91;50.37;97238.09;10290204;28;20037;-27
2023/09/25 05:57:25;;;;;;;1.70;1.40;;;;;;;18.94;50.22;97235.59;10295098;28;20058;-27
2023/09/25 06:02:33;;;;;;;3.20;0.85;;;;;;;18.95;50.51;97234.75;10291003;28;20281;-26
2023/09/25 06:07:35;;;;;;;1.33;1.00;;;;;;;18.95;50.55;97229.66;10289715;28;20114;-27
2023/09/25 06:12:35;;;;;;;1.88;0.90;;;;;;;18.97;50.48;97237.28;10289820;28;20062;-27
2023/09/25 06:17:37;;;;;;;4.85;1.05;;;;;;;18.98;50.47;97236.44;10290766;28;20042;-27
2023/09/25 06:22:37;;;;;;;1.90;0.85;;;;;;;19.00;50.15;97243.22;10289219;28;20034;-26
2023/09/25 06:27:39;;;;;;;0.98;0.75;;;;;;;18.97;50.49;97237.28;10285027;28;20043;-27
2023/09/25 06:32:40;;;;;;;2.20;1.17;;;;;;;18.97;50.42;97245.75;10289302;28;20034;-26
2023/09/25 06:37:40;;;;;;;1.00;0.70;;;;;;;18.96;50.33;97248.25;10288714;28;20034;-26
2023/09/25 06:42:41;;;;;;;0.93;0.70;;;;;;;18.98;50.51;97241.50;10284061;28;20447;-27
2023/09/25 06:47:43;;;;;;;1.55;0.68;;;;;;;18.93;50.63;97243.19;10287458;28;20038;-26
2023/09/25 06:52:44;;;;;;;1.30;0.70;;;;;;;18.95;50.39;97241.50;10283500;28;20117;-26
2023/09/25 06:57:44;;;;;;;2.13;0.70;;;;;;;18.91;50.54;97239.78;10283828;28;20617;-26
2023/09/25 07:02:45;;;;;;;1.60;0.90;;;;;;;18.92;50.36;97241.47;10289204;28;20710;-26
2023/09/25 07:07:46;;;;;;;0.83;0.63;;;;;;;18.91;50.54;97240.63;10287577;28;20571;-27
2023/09/25 07:12:46;;;;;;;0.90;0.70;;;;;;;18.91;50.60;97239.78;10285169;28;20034;-26
2023/09/25 07:17:47;;;;;;;2.03;0.70;;;;;;;18.92;50.59;97231.34;10288597;28;20041;-27
2023/09/25 07:22:47;;;;;;;0.80;0.65;;;;;;;18.92;50.50;97232.16;10287409;28;20050;-28
2023/09/25 07:27:51;;;;;;;1.08;0.50;;;;;;;18.91;50.53;97234.72;10281729;28;20043;-26
2023/09/25 07:32:52;;;;;;;1.77;0.75;;;;;;;18.85;50.22;97219.44;10287829;28;20050;-27
2023/09/25 07:37:52;;;;;;;1.23;0.60;;;;;;;18.91;50.65;97234.72;10285114;28;20042;-27
2023/09/25 07:42:52;;;;;;;2.00;0.70;;;;;;;18.91;50.61;97232.19;10281054;28;20502;-27
2023/09/25 07:47:54;;;;;;;1.13;0.90;;;;;;;18.90;50.55;97238.94;10286913;28;20050;-27
2023/09/25 07:52:55;;;;;;;0.88;0.70;;;;;;;18.92;50.57;97236.41;10286350;28;20038;-27
2023/09/25 07:57:56;;;;;;;1.02;0.60;;;;;;;18.95;50.69;97247.44;10282207;28;20066;-27
2023/09/25 08:02:57;;;;;;;0.90;0.70;;;;;;;18.99;50.36;97246.59;10287051;28;20081;-27
2023/09/25 08:07:57;;;;;;;1.93;1.00;;;;;;;19.00;50.76;97250.00;10285261;28;20485;-27
2023/09/25 08:12:57;;;;;;;1.30;0.80;;;;;;;19.00;50.88;97247.47;10285181;28;20073;-27
2023/09/25 08:17:58;;;;;;;1.37;0.60;;;;;;;19.00;50.87;97248.28;10286349;28;20282;-27
2023/09/25 08:22:59;;;;;;;1.17;0.90;;;;;;;19.00;50.87;97250.81;10283792;28;20031;-27
2023/09/25 08:27:59;;;;;;;0.80;0.50;;;;;;;19.01;51.00;97261.84;10284653;28;20042;-27
2023/09/25 08:32:59;;;;;;;2.00;0.80;;;;;;;19.02;51.22;97263.53;10286297;28;20057;-26
2023/09/25 08:38:00;;;;;;;3.03;0.93;;;;;;;19.02;51.35;97258.47;10282115;28;20031;-27
2023/09/25 08:43:00;;;;;;;1.63;0.90;;;;;;;19.04;51.36;97261.84;10284761;28;20312;-26
2023/09/25 08:48:03;;;;;;;1.40;0.90;;;;;;;19.03;51.34;97263.56;10285561;28;20038;-26
2023/09/25 08:53:03;;;;;;;1.10;0.70;;;;;;;19.04;51.32;97261.84;10283570;28;20043;-27
2023/09/25 08:58:07;;;;;;;1.07;0.77;;;;;;;19.05;51.35;97261.00;10284249;28;20043;-27
2023/09/25 09:03:08;;;;;;;0.70;0.50;;;;;;;19.04;51.55;97261.84;10280358;28;20275;-27
2023/09/25 09:08:09;;;;;;;0.95;0.77;;;;;;;19.05;51.50;97266.09;10282596;28;20039;-27
2023/09/25 09:13:10;;;;;;;1.25;0.73;;;;;;;19.06;51.65;97260.16;10283891;28;20105;-27
2023/09/25 09:18:19;;;;;;;1.00;0.70;;;;;;;19.05;51.48;97266.94;10285361;28;20517;-27
2023/09/25 09:23:20;;;;;;;0.57;0.50;;;;;;;19.07;51.55;97261.84;10287434;28;20023;-27
2023/09/25 09:28:21;;;;;;;0.85;0.50;;;;;;;19.06;51.83;97260.16;10290890;28;20493;-26
2023/09/25 09:33:23;;;;;;;0.93;0.65;;;;;;;19.05;51.69;97251.72;10292547;28;20067;-27
2023/09/25 09:38:24;;;;;;;0.75;0.45;;;;;;;19.08;51.79;97258.50;10290980;28;20089;-26
2023/09/25 09:43:25;;;;;;;0.75;0.60;;;;;;;19.03;51.78;97244.94;10289558;28;20885;-27
2023/09/25 09:48:29;;;;;;;2.13;0.70;;;;;;;19.09;51.74;97252.59;10291923;28;20030;-27
2023/09/25 09:53:34;;;;;;;0.65;0.50;;;;;;;19.08;51.92;97250.91;10288831;28;20039;-26
2023/09/25 09:58:36;;;;;;;0.85;0.50;;;;;;;19.08;51.92;97255.97;10289383;28;20501;-27
2023/09/25 10:03:37;;;;;;;1.30;0.60;;;;;;;19.09;51.93;97247.50;10291160;28;20031;-26
2023/09/25 10:08:37;;;;;;;0.98;0.50;;;;;;;19.04;52.47;97234.78;10287649;28;20390;-27
2023/09/25 10:13:38;;;;;;;0.83;0.53;;;;;;;19.08;52.13;97248.34;10288970;28;20031;-26
2023/09/25 10:18:38;;;;;;;0.77;0.67;;;;;;;19.09;52.15;97234.81;10290998;28;20274;-27
2023/09/25 10:23:40;;;;;;;1.57;0.63;;;;;;;19.04;52.12;97231.41;10285980;28;20536;-27
2023/09/25 10:28:41;;;;;;;0.43;0.30;;;;;;;19.09;52.13;97244.97;10287862;28;20034;-27
2023/09/25 10:33:54;;;;;;;0.85;0.60;;;;;;;19.08;52.49;97240.75;10289227;28;20023;-27
2023/09/25 10:38:54;;;;;;;5.00;1.23;;;;;;;19.04;53.13;97236.47;10285820;28;20039;-26
2023/09/25 10:43:57;;;;;;;0.50;0.50;;;;;;;19.08;52.32;97243.28;10287188;28;20512;-26
2023/09/25 10:48:57;;;;;;;1.30;0.93;;;;;;;19.04;52.43;97244.09;10290080;28;20043;-26
2023/09/25 10:53:57;;;;;;;2.25;0.57;;;;;;;19.07;52.68;97246.63;10284687;28;20090;-28
2023/09/25 10:58:58;;;;;;;4.57;0.50;;;;;;;19.06;52.58;97234.78;10288078;28;20045;-27
2023/09/25 11:03:59;;;;;;;1.42;0.57;;;;;;;19.04;52.70;97236.47;10289911;28;20081;-27
2023/09/25 11:09:03;;;;;;;2.55;0.60;;;;;;;19.05;53.10;97233.09;10284097;28;20055;-26
2023/09/25 11:14:04;;;;;;;1.08;0.80;;;;;;;19.06;52.84;97237.31;10285246;28;20129;-26
2023/09/25 11:19:12;;;;;;;10.60;2.50;;;;;;;19.06;53.72;97235.66;10283760;28;20492;-27
2023/09/25 11:24:13;;;;;;;36.85;5.18;;;;;;;19.10;53.97;97232.28;10282264;28;20038;-27
2023/09/25 11:29:14;;;;;;;11.82;1.80;;;;;;;19.09;54.14;97229.75;10286819;28;20813;-27
2023/09/25 11:34:15;;;;;;;10.18;1.38;;;;;;;19.00;53.54;97215.31;10286862;28;20462;-26
2023/09/25 11:39:16;;;;;;;7.93;1.35;;;;;;;19.04;53.51;97216.16;10282693;28;20039;-26
2023/09/25 11:44:17;;;;;;;15.02;1.90;;;;;;;19.05;53.65;97207.72;10283778;28;20413;-26
2023/09/25 11:49:17;;;;;;;6.25;1.55;;;;;;;19.11;53.46;97218.78;10281221;28;20113;-26
2023/09/25 11:54:17;;;;;;;7.03;1.97;;;;;;;19.14;53.42;97217.91;10283891;28;20101;-27
2023/09/25 11:59:18;;;;;;;11.03;2.07;;;;;;;19.17;53.35;97210.34;10283385;28;20034;-26
2023/09/25 12:04:19;;;;;;;12.43;5.47;;;;;;;19.17;53.76;97210.34;10278745;28;20045;-26
2023/09/25 12:09:19;;;;;;;7.40;1.70;;;;;;;19.20;54.17;97212.91;10285586;28;20094;-26
2023/09/25 12:14:19;;;;;;;8.77;2.03;;;;;;;19.21;53.89;97212.94;10281959;28;20031;-26
2023/09/25 12:19:20;;;;;;;18.33;3.00;;;;;;;19.21;54.35;97210.38;10286896;28;20030;-26
2023/09/25 12:24:20;;;;;;;13.13;2.28;;;;;;;19.23;54.11;97205.28;10285092;28;20579;-26
2023/09/25 12:29:20;;;;;;;10.03;2.27;;;;;;;19.24;53.74;97209.56;10282644;28;20042;-26
2023/09/25 12:34:21;;;;;;;11.77;2.53;;;;;;;19.28;53.83;97208.72;10280263;28;20362;-27
2023/09/25 12:39:21;;;;;;;14.87;3.17;;;;;;;19.26;53.55;97208.69;10282928;28;20027;-27
2023/09/25 12:44:21;;;;;;;9.43;2.10;;;;;;;19.26;53.24;97202.78;10281628;28;20092;-26
2023/09/25 12:49:22;;;;;;;9.10;2.20;;;;;;;19.28;53.54;97211.25;10282097;28;20046;-27
2023/09/25 12:54:22;;;;;;;8.60;4.10;;;;;;;19.28;53.45;97211.25;10285093;28;20031;-27
2023/09/25 12:59:23;;;;;;;9.57;3.97;;;;;;;19.28;53.25;97206.19;10285996;28;20800;-26
2023/09/25 13:04:23;;;;;;;7.18;3.05;;;;;;;19.23;54.80;97197.69;10293128;28;20034;-26
2023/09/25 13:09:24;;;;;;;13.37;3.73;;;;;;;19.27;54.41;97202.78;10290014;28;20630;-26
2023/09/25 13:14:25;;;;;;;11.32;3.40;;;;;;;19.29;53.91;97202.78;10291200;28;20397;-27
2023/09/25 13:19:25;;;;;;;10.47;2.40;;;;;;;19.27;53.50;97209.56;10292675;28;20034;-27
2023/09/25 13:24:26;;;;;;;9.47;2.30;;;;;;;19.24;53.36;97200.25;10291303;28;20027;-27
2023/09/25 13:29:27;;;;;;;12.77;3.13;;;;;;;19.24;54.09;97194.31;10285632;28;20042;-25
2023/09/25 13:34:27;;;;;;;13.70;2.83;;;;;;;19.23;53.36;97190.06;10291924;28;20050;-25
2023/09/25 13:39:28;;;;;;;4.38;1.88;;;;;;;19.22;53.38;97196.00;10290855;28;20038;-27
2023/09/25 13:44:28;;;;;;;5.45;1.38;;;;;;;19.20;53.78;97183.31;10286927;28;20054;-27
2023/09/25 13:49:28;;;;;;;5.60;2.17;;;;;;;19.20;54.04;97178.22;10291803;28;20030;-27
2023/09/25 13:54:29;;;;;;;5.90;1.73;;;;;;;19.23;54.27;97185.00;10288982;28;20298;-26
2023/09/25 13:59:29;;;;;;;5.67;1.57;;;;;;;19.22;53.95;97175.69;10287361;28;20090;-27
2023/09/25 14:04:31;;;;;;;3.42;1.60;;;;;;;19.22;54.30;97183.28;10291017;28;20035;-28
2023/09/25 14:09:31;;;;;;;3.42;1.60;;;;;;;19.22;54.46;97181.63;10289654;28;20062;-27
2023/09/25 14:14:44;;;;;;;5.47;2.13;;;;;;;19.21;54.21;97174.00;10289589;28;20043;-26
2023/09/25 14:19:45;;;;;;;5.88;1.70;;;;;;;19.20;53.88;97175.69;10288426;28;20310;-28
2023/09/25 14:24:46;;;;;;;3.97;1.60;;;;;;;19.17;53.32;97173.09;10290035;28;20035;-27
2023/09/25 14:29:46;;;;;;;5.05;1.55;;;;;;;19.22;53.56;97176.53;10285721;28;20516;-26
2023/09/25 14:34:46;;;;;;;4.88;1.83;;;;;;;19.21;54.03;97179.06;10288302;28;20068;-27
2023/09/25 14:39:48;;;;;;;6.50;1.40;;;;;;;19.21;53.93;97185.00;10290057;28;20417;-26
2023/09/25 14:44:48;;;;;;;5.90;1.20;;;;;;;19.22;54.43;97180.75;10286277;28;20037;-27
2023/09/25 14:49:51;;;;;;;9.18;2.22;;;;;;;19.18;54.16;97173.94;10303804;28;20038;-27
2023/09/25 14:54:51;;;;;;;7.25;2.45;;;;;;;19.21;54.18;97185.00;10293888;28;20117;-27
2023/09/25 14:59:52;;;;;;;22.67;3.03;;;;;;;19.21;54.35;97184.13;10283591;28;20105;-27
2023/09/25 15:04:52;;;;;;;22.13;2.73;;;;;;;19.20;54.31;97172.28;10288364;28;20282;-26
2023/09/25 15:09:53;;;;;;;14.88;2.42;;;;;;;19.16;54.32;97170.56;10285251;28;20038;-27
2023/09/25 15:14:53;;;;;;;11.03;3.63;;;;;;;19.20;54.46;97178.22;10294547;28;20406;-26
2023/09/25 15:19:56;;;;;;;20.27;2.80;;;;;;;19.18;54.45;97184.09;10283217;28;20437;-26
2023/09/25 15:24:56;;;;;;;14.82;2.97;;;;;;;19.17;54.24;97179.88;10287387;28;20031;-27
2023/09/25 15:29:57;;;;;;;16.83;3.73;;;;;;;19.20;54.45;97183.31;10279805;28;20490;-27
2023/09/25 15:34:57;;;;;;;10.27;2.17;;;;;;;19.20;54.51;97185.00;10288103;28;20508;-27
2023/09/25 15:40:01;;;;;;;12.03;2.33;;;;;;;19.20;54.23;97182.44;10283256;28;20030;-27
2023/09/25 15:45:01;;;;;;;13.02;2.30;;;;;;;19.19;54.14;97173.13;10280085;28;20062;-27
2023/09/25 15:50:03;;;;;;;11.32;3.50;;;;;;;19.17;54.43;97180.72;10287549;28;20050;-25
2023/09/25 15:55:04;;;;;;;8.07;1.95;;;;;;;19.16;54.41;97176.47;10285864;28;20039;-26
2023/09/25 16:00:06;;;;;;;14.18;3.08;;;;;;;19.16;54.53;97181.53;10282758;28;20056;-27
2023/09/25 16:05:07;;;;;;;14.60;2.95;;;;;;;19.17;56.57;97180.72;10285017;28;20481;-26
2023/09/25 16:10:08;;;;;;;12.80;3.13;;;;;;;19.22;55.84;97171.47;10273829;28;20467;-27
2023/09/25 16:15:08;;;;;;;8.23;2.40;;;;;;;19.22;55.41;97180.75;10269197;28;20030;-27
2023/09/25 16:20:09;;;;;;;9.25;1.90;;;;;;;19.23;55.43;97172.28;10277411;28;20035;-27
2023/09/25 16:25:10;;;;;;;7.78;1.83;;;;;;;19.27;55.16;97177.38;10278848;28;20031;-27
2023/09/25 16:30:10;;;;;;;7.18;1.60;;;;;;;19.26;54.97;97177.41;10277357;28;20035;-27
2023/09/25 16:35:12;;;;;;;8.68;2.17;;;;;;;19.27;54.92;97184.19;10276272;28;20026;-27
2023/09/25 16:40:12;;;;;;;10.82;1.60;;;;;;;19.26;54.86;97183.31;10278705;28;20453;-26
2023/09/25 16:45:13;;;;;;;6.03;1.60;;;;;;;19.27;55.02;97184.19;10287668;28;20089;-26
2023/09/25 16:50:13;;;;;;;5.80;1.60;;;;;;;19.26;54.95;97188.38;10277299;28;20796;-28
2023/09/25 16:55:14;;;;;;;3.97;1.83;;;;;;;19.24;54.92;97195.16;10280378;28;20301;-26
2023/09/25 17:00:14;;;;;;;4.25;1.65;;;;;;;19.27;55.30;97204.50;10282389;28;20031;-27
2023/09/25 17:05:15;;;;;;;5.07;1.48;;;;;;;19.27;55.24;97204.50;10289997;28;20313;-27
2023/09/25 17:10:15;;;;;;;5.22;1.80;;;;;;;19.26;55.09;97205.34;10286929;28;20039;-27
2023/09/25 17:15:16;;;;;;;3.25;1.25;;;;;;;19.24;54.97;97219.72;10286687;28;20037;-26
2023/09/25 17:20:16;;;;;;;4.93;1.35;;;;;;;19.24;55.38;97212.94;10287121;28;20030;-27
2023/09/25 17:25:18;;;;;;;2.90;1.27;;;;;;;19.25;54.84;97208.72;10280438;28;20106;-26
2023/09/25 17:30:21;;;;;;;3.53;1.10;;;;;;;19.25;55.11;97212.09;10271608;28;20421;-26
2023/09/25 17:35:21;;;;;;;5.75;1.45;;;;;;;19.29;54.89;97226.50;10279865;28;20042;-27
2023/09/25 17:40:22;;;;;;;4.80;1.83;;;;;;;19.34;54.99;97227.34;10280825;28;20405;-27
2023/09/25 17:45:22;;;;;;;8.57;1.73;;;;;;;19.34;55.03;97227.34;10299934;28;20109;-26
2023/09/25 17:50:22;;;;;;;6.53;1.50;;;;;;;19.37;55.20;97232.47;10300082;28;20432;-27
2023/09/25 17:55:23;;;;;;;7.30;1.90;;;;;;;19.39;55.17;97240.06;10287613;28;20301;-27
2023/09/25 18:00:23;;;;;;;5.00;1.53;;;;;;;19.40;55.90;97246.84;10280166;28;20496;-27
2023/09/25 18:05:24;;;;;;;3.00;1.58;;;;;;;19.38;55.73;97256.16;10279919;28;20031;-27
2023/09/25 18:10:24;;;;;;;7.80;1.63;;;;;;;19.38;55.48;97253.63;10293850;28;20031;-27
2023/09/25 18:15:25;;;;;;;5.53;1.33;;;;;;;19.38;55.46;97259.56;10284831;28;20090;-26
2023/09/25 18:20:25;;;;;;;4.18;1.30;;;;;;;19.39;55.38;97260.38;10291947;28;20082;-26
2023/09/25 18:25:26;;;;;;;5.67;1.60;;;;;;;19.37;55.79;97257.00;10312209;28;20162;-26
2023/09/25 18:30:27;;;;;;;5.15;1.60;;;;;;;19.38;55.51;97263.78;10291292;28;20031;-27
2023/09/25 18:35:27;;;;;;;4.78;1.60;;;;;;;19.38;55.77;97264.63;10301066;28;20061;-27
2023/09/25 18:40:28;;;;;;;5.53;1.50;;;;;;;19.39;55.63;97260.38;10275417;28;20651;-26
2023/09/25 18:45:29;;;;;;;15.95;3.55;;;;;;;19.40;57.20;97272.25;10278747;28;20421;-27
2023/09/25 18:50:29;;;;;;;4.38;1.73;;;;;;;19.34;58.54;97267.97;10287745;28;20038;-27
2023/09/25 18:55:30;;;;;;;5.03;1.50;;;;;;;19.32;59.40;97271.34;10296413;28;20042;-27
2023/09/25 19:00:30;;;;;;;4.45;1.33;;;;;;;19.29;59.77;97269.66;10299822;28;20547;-26
2023/09/25 19:05:32;;;;;;;4.23;1.70;;;;;;;19.31;58.87;97269.66;10313082;28;20042;-27
2023/09/25 19:10:33;;;;;;;4.38;1.48;;;;;;;19.29;58.70;97272.22;10312809;28;20305;-27
2023/09/25 19:15:33;;;;;;;6.25;2.72;;;;;;;19.29;59.39;97271.34;10309825;28;20413;-27
2023/09/25 19:20:34;;;;;;;3.78;1.65;;;;;;;19.29;59.10;97278.97;10308945;28;20126;-27
2023/09/25 19:25:34;;;;;;;3.07;1.40;;;;;;;19.21;58.95;97261.16;10294302;28;20406;-27
2023/09/25 19:30:35;;;;;;;3.47;1.47;;;;;;;19.28;58.68;97267.09;10282948;28;20560;-27
2023/09/25 19:35:35;;;;;;;3.72;2.08;;;;;;;19.27;59.39;97262.88;10308454;28;20125;-27
2023/09/25 19:40:35;;;;;;;4.77;1.30;;;;;;;19.25;58.46;97255.25;10303590;28;20436;-26
2023/09/25 19:45:36;;;;;;;3.20;1.10;;;;;;;19.25;58.81;97257.78;10294414;28;20413;-27
2023/09/25 19:50:36;;;;;;;5.93;1.70;;;;;;;19.27;58.02;97255.25;10300728;28;20405;-27
2023/09/25 19:55:36;;;;;;;4.17;2.07;;;;;;;19.30;57.67;97255.25;10306077;28;20047;-26
2023/09/25 20:00:37;;;;;;;2.87;2.00;;;;;;;19.29;58.21;97273.88;10303697;28;20667;-26
2023/09/25 20:05:37;;;;;;;3.17;1.27;;;;;;;19.29;58.08;97273.88;10310943;28;20034;-26
2023/09/25 20:10:37;;;;;;;3.53;1.13;;;;;;;19.28;58.45;97282.34;10297691;28;20409;-26
2023/09/25 20:15:38;;;;;;;2.13;0.97;;;;;;;19.27;57.78;97270.50;10297997;28;20501;-27
2023/09/25 20:20:38;;;;;;;2.17;1.15;;;;;;;19.26;58.04;97263.72;10290240;28;20282;-27
2023/09/25 20:25:39;;;;;;;1.83;1.00;;;;;;;19.25;58.17;97264.56;10306501;28;20509;-26
2023/09/25 20:30:40;;;;;;;2.23;1.00;;;;;;;19.28;58.22;97272.19;10301305;28;20042;-27
2023/09/25 20:35:51;;;;;;;3.00;1.10;;;;;;;19.28;57.56;97259.50;10311812;28;20037;-27
2023/09/25 20:40:52;;;;;;;1.33;1.10;;;;;;;19.25;57.74;97251.88;10307976;28;20042;-26
2023/09/25 20:45:52;;;;;;;3.88;1.60;;;;;;;19.31;57.13;97246.81;10294001;28;20293;-26
2023/09/25 20:50:53;;;;;;;1.83;0.90;;;;;;;19.31;57.08;97245.13;10303127;28;20049;-27
2023/09/25 20:55:53;;;;;;;1.53;0.90;;;;;;;19.28;58.10;97232.44;10306167;28;20031;-27
2023/09/25 21:00:53;;;;;;;1.27;0.80;;;;;;;19.29;57.46;97243.41;10284035;28;20035;-27
2023/09/25 21:05:54;;;;;;;2.53;0.80;;;;;;;19.26;57.97;97248.50;10290707;28;20027;-26
2023/09/25 21:10:58;;;;;;;1.70;1.20;;;;;;;19.25;57.87;97239.19;10306343;28;20027;-27
2023/09/25 21:15:58;;;;;;;1.38;0.95;;;;;;;19.24;56.86;97240.03;10301631;28;20122;-27
2023/09/25 21:20:58;;;;;;;2.67;1.10;;;;;;;19.25;57.31;97244.25;10300387;28;20039;-26
2023/09/25 21:25:59;;;;;;;1.87;1.03;;;;;;;19.26;57.85;97248.50;10309182;28;20034;-27
2023/09/25 21:30:59;;;;;;;1.23;0.83;;;;;;;19.21;57.14;97250.13;10304050;28;20084;-26
2023/09/25 21:35:59;;;;;;;2.63;0.90;;;;;;;19.24;57.41;97250.19;10310739;28;20045;-27
2023/09/25 21:41:00;;;;;;;1.73;1.10;;;;;;;19.21;57.68;97245.94;10307403;28;20501;-27
2023/09/25 21:46:01;;;;;;;1.33;0.90;;;;;;;19.20;57.25;97240.84;10299808;28;20500;-27
2023/09/25 21:51:03;;;;;;;1.80;1.00;;;;;;;19.21;57.53;97251.00;10314419;28;20038;-28
2023/09/25 21:56:05;;;;;;;0.77;0.73;;;;;;;19.21;56.70;97239.97;10309484;28;20065;-27
2023/09/25 22:01:05;;;;;;;1.02;0.93;;;;;;;19.21;57.47;97243.38;10300712;28;20125;-27
2023/09/25 22:06:06;;;;;;;1.33;0.80;;;;;;;19.20;57.47;97238.28;10309472;28;20035;-27
2023/09/25 22:11:06;;;;;;;1.37;0.90;;;;;;;19.19;57.24;97227.28;10310042;28;20278;-27
2023/09/25 22:16:09;;;;;;;1.80;0.70;;;;;;;19.20;57.15;97231.53;10300967;28;20710;-26
2023/09/25 22:21:14;;;;;;;1.13;0.80;;;;;;;19.19;57.37;97226.44;10301673;28;20042;-26
2023/09/25 22:26:15;;;;;;;1.15;0.73;;;;;;;19.18;57.26;97225.56;10312591;28;20505;-27
2023/09/25 22:31:19;;;;;;;0.82;0.60;;;;;;;19.15;56.93;97210.31;10301639;28;20037;-27
2023/09/25 22:36:19;;;;;;;1.77;0.93;;;;;;;19.17;56.63;97208.63;10303240;28;20078;-27
2023/09/25 22:41:21;;;;;;;1.57;0.70;;;;;;;19.21;57.21;97209.53;10304552;28;20556;-27
2023/09/25 22:46:22;;;;;;;2.03;0.82;;;;;;;19.20;57.02;97210.38;10305812;28;20378;-27
2023/09/25 22:51:22;;;;;;;1.10;1.00;;;;;;;19.15;56.50;97209.44;10310953;28;20478;-26
2023/09/25 22:56:23;;;;;;;0.80;0.67;;;;;;;19.20;56.84;97217.97;10313089;28;20422;-27
2023/09/25 23:01:23;;;;;;;1.58;0.68;;;;;;;19.20;56.37;97226.47;10300120;28;20541;-26
2023/09/25 23:06:25;;;;;;;1.63;0.93;;;;;;;19.20;56.59;97223.06;10306729;28;20513;-26
2023/09/25 23:11:25;;;;;;;1.38;0.75;;;;;;;19.19;56.10;97223.91;10290178;28;20035;-26
2023/09/25 23:16:26;;;;;;;1.63;0.77;;;;;;;19.21;56.53;97224.75;10296893;28;20045;-27